sensor_id;sensor_type;location;lat;lon;timestamp;P1;durP1;ratioP1;P2;durP2;ratioP2
68319;SDS011;55168;51.120;17.024;2023-06-22T00:00:00;17.3;;;15.5;;
68319;SDS011;55168;51.120;17.024;2023-06-22T00:01:00;17.3;;;15.5;;
68319;SDS011;55168;51.120;17.024;2023-06-22T00:02:00;17.3;;;15.5;;
68319;SDS011;55168;51.120;17.024;2023-06-22T00:03:00;17.3;;;15.5;;
68319;SDS011;55168;51.120;17.024;2023-06-22T00:04:00;18.1;;;16.4;;
68319;SDS011;55168;51.120;17.024;2023-06-22T00:05:00;18.1;;;16.4;;
68319;SDS011;55168;51.120;17.024;2023-06-22T00:06:00;18.1;;;16.4;;
68319;SDS011;55168;51.120;17.024;2023-06-22T00:07:00;18.1;;;16.4;;
68319;SDS011;55168;51.120;17.024;2023-06-22T00:08:03;18.1;;;16.4;;
68319;SDS011;55168;51.120;17.024;2023-06-22T00:09:00;17.5;;;15.8;;
68319;SDS011;55168;51.120;17.024;2023-06-22T00:10:00;17.5;;;15.8;;
68319;SDS011;55168;51.120;17.024;2023-06-22T00:11:00;17.5;;;15.8;;
68319;SDS011;55168;51.120;17.024;2023-06-22T00:12:01;17.5;;;15.8;;
68319;SDS011;55168;51.120;17.024;2023-06-22T00:13:00;17.5;;;15.8;;
68319;SDS011;55168;51.120;17.024;2023-06-22T00:14:00;17.2;;;15.6;;
68319;SDS011;55168;51.120;17.024;2023-06-22T00:15:00;17.2;;;15.6;;
68319;SDS011;55168;51.120;17.024;2023-06-22T00:16:00;17.2;;;15.6;;
68319;SDS011;55168;51.120;17.024;2023-06-22T00:17:00;17.2;;;15.6;;
68319;SDS011;55168;51.120;17.024;2023-06-22T00:18:00;17.2;;;15.6;;
68319;SDS011;55168;51.120;17.024;2023-06-22T00:19:00;17.6;;;16.0;;
68319;SDS011;55168;51.120;17.024;2023-06-22T00:20:00;17.6;;;16.0;;
68319;SDS011;55168;51.120;17.024;2023-06-22T00:21:00;17.6;;;16.0;;
68319;SDS011;55168;51.120;17.024;2023-06-22T00:22:00;17.6;;;16.0;;
68319;SDS011;55168;51.120;17.024;2023-06-22T00:23:00;17.6;;;16.0;;
68319;SDS011;55168;51.120;17.024;2023-06-22T00:24:00;17.5;;;15.9;;
68319;SDS011;55168;51.120;17.024;2023-06-22T00:25:00;17.5;;;15.9;;
68319;SDS011;55168;51.120;17.024;2023-06-22T00:26:00;17.5;;;15.9;;
68319;SDS011;55168;51.120;17.024;2023-06-22T00:27:00;17.5;;;15.9;;
68319;SDS011;55168;51.120;17.024;2023-06-22T00:28:01;17.5;;;15.9;;
68319;SDS011;55168;51.120;17.024;2023-06-22T00:29:00;17.6;;;16.0;;
68319;SDS011;55168;51.120;17.024;2023-06-22T00:30:00;17.6;;;16.0;;
68319;SDS011;55168;51.120;17.024;2023-06-22T00:31:00;17.6;;;16.0;;
68319;SDS011;55168;51.120;17.024;2023-06-22T00:32:00;17.6;;;16.0;;
68319;SDS011;55168;51.120;17.024;2023-06-22T00:33:00;17.6;;;16.0;;
68319;SDS011;55168;51.120;17.024;2023-06-22T00:34:00;17.7;;;16.1;;
68319;SDS011;55168;51.120;17.024;2023-06-22T00:35:00;17.7;;;16.1;;
68319;SDS011;55168;51.120;17.024;2023-06-22T00:36:00;17.7;;;16.1;;
68319;SDS011;55168;51.120;17.024;2023-06-22T00:37:00;17.7;;;16.1;;
68319;SDS011;55168;51.120;17.024;2023-06-22T00:38:01;17.7;;;16.1;;
68319;SDS011;55168;51.120;17.024;2023-06-22T00:39:00;18.1;;;16.4;;
68319;SDS011;55168;51.120;17.024;2023-06-22T00:40:00;18.1;;;16.4;;
68319;SDS011;55168;51.120;17.024;2023-06-22T00:41:00;18.1;;;16.4;;
68319;SDS011;55168;51.120;17.024;2023-06-22T00:42:00;18.1;;;16.4;;
68319;SDS011;55168;51.120;17.024;2023-06-22T00:43:00;18.1;;;16.4;;
68319;SDS011;55168;51.120;17.024;2023-06-22T00:44:00;17.3;;;15.8;;
68319;SDS011;55168;51.120;17.024;2023-06-22T00:45:00;17.3;;;15.8;;
68319;SDS011;55168;51.120;17.024;2023-06-22T00:46:00;17.3;;;15.8;;
68319;SDS011;55168;51.120;17.024;2023-06-22T00:47:00;17.3;;;15.8;;
68319;SDS011;55168;51.120;17.024;2023-06-22T00:48:00;17.3;;;15.8;;
68319;SDS011;55168;51.120;17.024;2023-06-22T00:49:00;17.8;;;16.1;;
68319;SDS011;55168;51.120;17.024;2023-06-22T00:50:00;17.8;;;16.1;;
68319;SDS011;55168;51.120;17.024;2023-06-22T00:51:00;17.8;;;16.1;;
68319;SDS011;55168;51.120;17.024;2023-06-22T00:52:00;17.8;;;16.1;;
68319;SDS011;55168;51.120;17.024;2023-06-22T00:53:07;17.8;;;16.1;;
68319;SDS011;55168;51.120;17.024;2023-06-22T00:54:00;17.7;;;16.0;;
68319;SDS011;55168;51.120;17.024;2023-06-22T00:55:01;17.7;;;16.0;;
68319;SDS011;55168;51.120;17.024;2023-06-22T00:56:00;17.7;;;16.0;;
68319;SDS011;55168;51.120;17.024;2023-06-22T00:57:00;17.7;;;16.0;;
68319;SDS011;55168;51.120;17.024;2023-06-22T00:58:00;17.7;;;16.0;;
68319;SDS011;55168;51.120;17.024;2023-06-22T00:59:00;18.3;;;16.5;;
68319;SDS011;55168;51.120;17.024;2023-06-22T01:00:00;18.3;;;16.5;;
68319;SDS011;55168;51.120;17.024;2023-06-22T01:01:00;18.3;;;16.5;;
68319;SDS011;55168;51.120;17.024;2023-06-22T01:02:00;18.3;;;16.5;;
68319;SDS011;55168;51.120;17.024;2023-06-22T01:03:01;18.3;;;16.5;;
68319;SDS011;55168;51.120;17.024;2023-06-22T01:04:00;17.6;;;16.0;;
68319;SDS011;55168;51.120;17.024;2023-06-22T01:05:00;17.6;;;16.0;;
68319;SDS011;55168;51.120;17.024;2023-06-22T01:06:07;17.6;;;16.0;;
68319;SDS011;55168;51.120;17.024;2023-06-22T01:08:06;17.6;;;16.0;;
68319;SDS011;55168;51.120;17.024;2023-06-22T01:09:05;17.8;;;16.1;;
68319;SDS011;55168;51.120;17.024;2023-06-22T01:11:08;17.8;;;16.1;;
68319;SDS011;55168;51.120;17.024;2023-06-22T01:12:02;17.8;;;16.1;;
68319;SDS011;55168;51.120;17.024;2023-06-22T01:13:04;17.8;;;16.1;;
68319;SDS011;55168;51.120;17.024;2023-06-22T01:14:08;18.6;;;16.9;;
68319;SDS011;55168;51.120;17.024;2023-06-22T01:15:07;18.6;;;16.9;;
68319;SDS011;55168;51.120;17.024;2023-06-22T01:16:03;18.6;;;16.9;;
68319;SDS011;55168;51.120;17.024;2023-06-22T01:17:01;18.6;;;16.9;;
68319;SDS011;55168;51.120;17.024;2023-06-22T01:18:03;18.6;;;16.9;;
68319;SDS011;55168;51.120;17.024;2023-06-22T01:19:06;17.1;;;15.5;;
68319;SDS011;55168;51.120;17.024;2023-06-22T01:20:02;17.1;;;15.5;;
68319;SDS011;55168;51.120;17.024;2023-06-22T01:21:00;17.1;;;15.5;;
68319;SDS011;55168;51.120;17.024;2023-06-22T01:22:01;17.1;;;15.5;;
68319;SDS011;55168;51.120;17.024;2023-06-22T01:23:21;17.1;;;15.5;;
68319;SDS011;55168;51.120;17.024;2023-06-22T01:25:09;17.5;;;15.9;;
68319;SDS011;55168;51.120;17.024;2023-06-22T01:26:18;17.5;;;15.9;;
68319;SDS011;55168;51.120;17.024;2023-06-22T01:27:09;17.5;;;15.9;;
68319;SDS011;55168;51.120;17.024;2023-06-22T01:28:13;17.5;;;15.9;;
68319;SDS011;55168;51.120;17.024;2023-06-22T01:29:02;18.2;;;16.5;;
68319;SDS011;55168;51.120;17.024;2023-06-22T01:30:01;18.2;;;16.5;;
68319;SDS011;55168;51.120;17.024;2023-06-22T01:31:00;18.2;;;16.5;;
68319;SDS011;55168;51.120;17.024;2023-06-22T01:32:02;18.2;;;16.5;;
68319;SDS011;55168;51.120;17.024;2023-06-22T01:33:03;18.2;;;16.5;;
68319;SDS011;55168;51.120;17.024;2023-06-22T01:34:03;18.1;;;16.3;;
68319;SDS011;55168;51.120;17.024;2023-06-22T01:35:01;18.1;;;16.3;;
68319;SDS011;55168;51.120;17.024;2023-06-22T01:36:01;18.1;;;16.3;;
68319;SDS011;55168;51.120;17.024;2023-06-22T01:37:00;18.1;;;16.3;;
68319;SDS011;55168;51.120;17.024;2023-06-22T01:38:00;18.1;;;16.3;;
68319;SDS011;55168;51.120;17.024;2023-06-22T01:39:02;17.6;;;15.9;;
68319;SDS011;55168;51.120;17.024;2023-06-22T01:40:01;17.6;;;15.9;;
68319;SDS011;55168;51.120;17.024;2023-06-22T01:41:01;17.6;;;15.9;;
68319;SDS011;55168;51.120;17.024;2023-06-22T01:42:00;17.6;;;15.9;;
68319;SDS011;55168;51.120;17.024;2023-06-22T01:43:00;17.6;;;15.9;;
68319;SDS011;55168;51.120;17.024;2023-06-22T01:44:00;17.5;;;15.8;;
68319;SDS011;55168;51.120;17.024;2023-06-22T01:45:01;17.5;;;15.8;;
68319;SDS011;55168;51.120;17.024;2023-06-22T01:46:01;17.5;;;15.8;;
68319;SDS011;55168;51.120;17.024;2023-06-22T01:47:01;17.5;;;15.8;;
68319;SDS011;55168;51.120;17.024;2023-06-22T01:48:00;17.5;;;15.8;;
68319;SDS011;55168;51.120;17.024;2023-06-22T01:49:02;17.5;;;15.8;;
68319;SDS011;55168;51.120;17.024;2023-06-22T01:50:00;17.5;;;15.8;;
68319;SDS011;55168;51.120;17.024;2023-06-22T01:51:00;17.5;;;15.8;;
68319;SDS011;55168;51.120;17.024;2023-06-22T01:52:00;17.5;;;15.8;;
68319;SDS011;55168;51.120;17.024;2023-06-22T01:53:00;17.5;;;15.8;;
68319;SDS011;55168;51.120;17.024;2023-06-22T01:54:01;18.0;;;16.4;;
68319;SDS011;55168;51.120;17.024;2023-06-22T01:55:00;18.0;;;16.4;;
68319;SDS011;55168;51.120;17.024;2023-06-22T01:56:00;18.0;;;16.4;;
68319;SDS011;55168;51.120;17.024;2023-06-22T01:57:00;18.0;;;16.4;;
68319;SDS011;55168;51.120;17.024;2023-06-22T01:58:00;18.0;;;16.4;;
68319;SDS011;55168;51.120;17.024;2023-06-22T01:59:08;18.3;;;16.6;;
68319;SDS011;55168;51.120;17.024;2023-06-22T02:00:02;18.3;;;16.6;;
68319;SDS011;55168;51.120;17.024;2023-06-22T02:01:06;18.3;;;16.6;;
68319;SDS011;55168;51.120;17.024;2023-06-22T02:02:04;18.3;;;16.6;;
68319;SDS011;55168;51.120;17.024;2023-06-22T02:03:05;18.3;;;16.6;;
68319;SDS011;55168;51.120;17.024;2023-06-22T02:04:04;17.6;;;16.0;;
68319;SDS011;55168;51.120;17.024;2023-06-22T02:05:05;17.6;;;16.0;;
68319;SDS011;55168;51.120;17.024;2023-06-22T02:06:04;17.6;;;16.0;;
68319;SDS011;55168;51.120;17.024;2023-06-22T02:07:04;17.6;;;16.0;;
68319;SDS011;55168;51.120;17.024;2023-06-22T02:08:08;17.6;;;16.0;;
68319;SDS011;55168;51.120;17.024;2023-06-22T02:09:02;18.0;;;16.3;;
68319;SDS011;55168;51.120;17.024;2023-06-22T02:10:02;18.0;;;16.3;;
68319;SDS011;55168;51.120;17.024;2023-06-22T02:11:00;18.0;;;16.3;;
68319;SDS011;55168;51.120;17.024;2023-06-22T02:12:02;18.0;;;16.3;;
68319;SDS011;55168;51.120;17.024;2023-06-22T02:13:01;18.0;;;16.3;;
68319;SDS011;55168;51.120;17.024;2023-06-22T02:14:00;18.0;;;16.3;;
68319;SDS011;55168;51.120;17.024;2023-06-22T02:15:00;18.0;;;16.3;;
68319;SDS011;55168;51.120;17.024;2023-06-22T02:16:00;18.0;;;16.3;;
68319;SDS011;55168;51.120;17.024;2023-06-22T02:17:00;18.0;;;16.3;;
68319;SDS011;55168;51.120;17.024;2023-06-22T02:18:00;18.0;;;16.3;;
68319;SDS011;55168;51.120;17.024;2023-06-22T02:19:01;19.1;;;17.2;;
68319;SDS011;55168;51.120;17.024;2023-06-22T02:20:01;19.1;;;17.2;;
68319;SDS011;55168;51.120;17.024;2023-06-22T02:21:00;19.1;;;17.2;;
68319;SDS011;55168;51.120;17.024;2023-06-22T02:22:00;19.1;;;17.2;;
68319;SDS011;55168;51.120;17.024;2023-06-22T02:23:00;19.1;;;17.2;;
68319;SDS011;55168;51.120;17.024;2023-06-22T02:24:00;18.5;;;16.6;;
68319;SDS011;55168;51.120;17.024;2023-06-22T02:25:00;18.5;;;16.6;;
68319;SDS011;55168;51.120;17.024;2023-06-22T02:26:00;18.5;;;16.6;;
68319;SDS011;55168;51.120;17.024;2023-06-22T02:27:01;18.5;;;16.6;;
68319;SDS011;55168;51.120;17.024;2023-06-22T02:28:00;18.5;;;16.6;;
68319;SDS011;55168;51.120;17.024;2023-06-22T02:29:00;18.6;;;16.9;;
68319;SDS011;55168;51.120;17.024;2023-06-22T02:30:00;18.6;;;16.9;;
68319;SDS011;55168;51.120;17.024;2023-06-22T02:31:00;18.6;;;16.9;;
68319;SDS011;55168;51.120;17.024;2023-06-22T02:32:00;18.6;;;16.9;;
68319;SDS011;55168;51.120;17.024;2023-06-22T02:33:00;18.6;;;16.9;;
68319;SDS011;55168;51.120;17.024;2023-06-22T02:34:00;18.4;;;16.8;;
68319;SDS011;55168;51.120;17.024;2023-06-22T02:35:00;18.4;;;16.8;;
68319;SDS011;55168;51.120;17.024;2023-06-22T02:36:00;18.4;;;16.8;;
68319;SDS011;55168;51.120;17.024;2023-06-22T02:37:00;18.4;;;16.8;;
68319;SDS011;55168;51.120;17.024;2023-06-22T02:38:01;18.4;;;16.8;;
68319;SDS011;55168;51.120;17.024;2023-06-22T02:39:00;18.6;;;16.7;;
68319;SDS011;55168;51.120;17.024;2023-06-22T02:40:00;18.6;;;16.7;;
68319;SDS011;55168;51.120;17.024;2023-06-22T02:41:00;18.6;;;16.7;;
68319;SDS011;55168;51.120;17.024;2023-06-22T02:42:00;18.6;;;16.7;;
68319;SDS011;55168;51.120;17.024;2023-06-22T02:43:00;18.6;;;16.7;;
68319;SDS011;55168;51.120;17.024;2023-06-22T02:44:00;18.8;;;17.0;;
68319;SDS011;55168;51.120;17.024;2023-06-22T02:45:00;18.8;;;17.0;;
68319;SDS011;55168;51.120;17.024;2023-06-22T02:46:00;18.8;;;17.0;;
68319;SDS011;55168;51.120;17.024;2023-06-22T02:47:00;18.8;;;17.0;;
68319;SDS011;55168;51.120;17.024;2023-06-22T02:48:00;18.8;;;17.0;;
68319;SDS011;55168;51.120;17.024;2023-06-22T02:49:00;19.2;;;17.4;;
68319;SDS011;55168;51.120;17.024;2023-06-22T02:50:00;19.2;;;17.4;;
68319;SDS011;55168;51.120;17.024;2023-06-22T02:51:00;19.2;;;17.4;;
68319;SDS011;55168;51.120;17.024;2023-06-22T02:52:00;19.2;;;17.4;;
68319;SDS011;55168;51.120;17.024;2023-06-22T02:53:00;19.2;;;17.4;;
68319;SDS011;55168;51.120;17.024;2023-06-22T02:54:00;19.5;;;17.6;;
68319;SDS011;55168;51.120;17.024;2023-06-22T02:55:00;19.5;;;17.6;;
68319;SDS011;55168;51.120;17.024;2023-06-22T02:56:02;19.5;;;17.6;;
68319;SDS011;55168;51.120;17.024;2023-06-22T02:57:00;19.5;;;17.6;;
68319;SDS011;55168;51.120;17.024;2023-06-22T02:58:00;19.5;;;17.6;;
68319;SDS011;55168;51.120;17.024;2023-06-22T02:59:00;19.0;;;17.0;;
68319;SDS011;55168;51.120;17.024;2023-06-22T03:00:03;19.0;;;17.0;;
68319;SDS011;55168;51.120;17.024;2023-06-22T03:01:00;19.0;;;17.0;;
68319;SDS011;55168;51.120;17.024;2023-06-22T03:02:00;19.0;;;17.0;;
68319;SDS011;55168;51.120;17.024;2023-06-22T03:03:00;19.0;;;17.0;;
68319;SDS011;55168;51.120;17.024;2023-06-22T03:04:00;18.7;;;17.0;;
68319;SDS011;55168;51.120;17.024;2023-06-22T03:05:00;18.7;;;17.0;;
68319;SDS011;55168;51.120;17.024;2023-06-22T03:06:00;18.7;;;17.0;;
68319;SDS011;55168;51.120;17.024;2023-06-22T03:07:00;18.7;;;17.0;;
68319;SDS011;55168;51.120;17.024;2023-06-22T03:08:00;18.7;;;17.0;;
68319;SDS011;55168;51.120;17.024;2023-06-22T03:09:02;19.4;;;17.5;;
68319;SDS011;55168;51.120;17.024;2023-06-22T03:10:00;19.4;;;17.5;;
68319;SDS011;55168;51.120;17.024;2023-06-22T03:11:00;19.4;;;17.5;;
68319;SDS011;55168;51.120;17.024;2023-06-22T03:12:00;19.4;;;17.5;;
68319;SDS011;55168;51.120;17.024;2023-06-22T03:13:00;19.4;;;17.5;;
68319;SDS011;55168;51.120;17.024;2023-06-22T03:14:01;18.7;;;17.0;;
68319;SDS011;55168;51.120;17.024;2023-06-22T03:15:00;18.7;;;17.0;;
68319;SDS011;55168;51.120;17.024;2023-06-22T03:16:00;18.7;;;17.0;;
68319;SDS011;55168;51.120;17.024;2023-06-22T03:17:00;18.7;;;17.0;;
68319;SDS011;55168;51.120;17.024;2023-06-22T03:18:00;18.7;;;17.0;;
68319;SDS011;55168;51.120;17.024;2023-06-22T03:19:00;19.3;;;17.4;;
68319;SDS011;55168;51.120;17.024;2023-06-22T03:20:00;19.3;;;17.4;;
68319;SDS011;55168;51.120;17.024;2023-06-22T03:21:00;19.3;;;17.4;;
68319;SDS011;55168;51.120;17.024;2023-06-22T03:22:00;19.3;;;17.4;;
68319;SDS011;55168;51.120;17.024;2023-06-22T03:23:00;19.3;;;17.4;;
68319;SDS011;55168;51.120;17.024;2023-06-22T03:24:00;19.0;;;17.2;;
68319;SDS011;55168;51.120;17.024;2023-06-22T03:25:00;19.0;;;17.2;;
68319;SDS011;55168;51.120;17.024;2023-06-22T03:26:01;19.0;;;17.2;;
68319;SDS011;55168;51.120;17.024;2023-06-22T03:27:00;19.0;;;17.2;;
68319;SDS011;55168;51.120;17.024;2023-06-22T03:28:00;19.0;;;17.2;;
68319;SDS011;55168;51.120;17.024;2023-06-22T03:29:00;19.7;;;17.8;;
68319;SDS011;55168;51.120;17.024;2023-06-22T03:30:00;19.7;;;17.8;;
68319;SDS011;55168;51.120;17.024;2023-06-22T03:31:00;19.7;;;17.8;;
68319;SDS011;55168;51.120;17.024;2023-06-22T03:32:00;19.7;;;17.8;;
68319;SDS011;55168;51.120;17.024;2023-06-22T03:33:00;19.7;;;17.8;;
68319;SDS011;55168;51.120;17.024;2023-06-22T03:34:00;18.9;;;17.1;;
68319;SDS011;55168;51.120;17.024;2023-06-22T03:35:00;18.9;;;17.1;;
68319;SDS011;55168;51.120;17.024;2023-06-22T03:36:00;18.9;;;17.1;;
68319;SDS011;55168;51.120;17.024;2023-06-22T03:37:00;18.9;;;17.1;;
68319;SDS011;55168;51.120;17.024;2023-06-22T03:38:00;18.9;;;17.1;;
68319;SDS011;55168;51.120;17.024;2023-06-22T03:39:00;19.0;;;17.2;;
68319;SDS011;55168;51.120;17.024;2023-06-22T03:40:00;19.0;;;17.2;;
68319;SDS011;55168;51.120;17.024;2023-06-22T03:41:00;19.0;;;17.2;;
68319;SDS011;55168;51.120;17.024;2023-06-22T03:42:00;19.0;;;17.2;;
68319;SDS011;55168;51.120;17.024;2023-06-22T03:43:00;19.0;;;17.2;;
68319;SDS011;55168;51.120;17.024;2023-06-22T03:44:00;18.7;;;16.9;;
68319;SDS011;55168;51.120;17.024;2023-06-22T03:45:00;18.7;;;16.9;;
68319;SDS011;55168;51.120;17.024;2023-06-22T03:46:00;18.7;;;16.9;;
68319;SDS011;55168;51.120;17.024;2023-06-22T03:47:00;18.7;;;16.9;;
68319;SDS011;55168;51.120;17.024;2023-06-22T03:48:00;18.7;;;16.9;;
68319;SDS011;55168;51.120;17.024;2023-06-22T03:49:00;20.2;;;18.3;;
68319;SDS011;55168;51.120;17.024;2023-06-22T03:50:00;20.2;;;18.3;;
68319;SDS011;55168;51.120;17.024;2023-06-22T03:51:01;20.2;;;18.3;;
68319;SDS011;55168;51.120;17.024;2023-06-22T03:52:00;20.2;;;18.3;;
68319;SDS011;55168;51.120;17.024;2023-06-22T03:53:00;20.2;;;18.3;;
68319;SDS011;55168;51.120;17.024;2023-06-22T03:54:00;20.1;;;18.1;;
68319;SDS011;55168;51.120;17.024;2023-06-22T03:55:00;20.1;;;18.1;;
68319;SDS011;55168;51.120;17.024;2023-06-22T03:56:00;20.1;;;18.1;;
68319;SDS011;55168;51.120;17.024;2023-06-22T03:57:00;20.1;;;18.1;;
68319;SDS011;55168;51.120;17.024;2023-06-22T03:58:00;20.1;;;18.1;;
68319;SDS011;55168;51.120;17.024;2023-06-22T03:59:00;20.9;;;18.8;;
68319;SDS011;55168;51.120;17.024;2023-06-22T04:00:00;20.9;;;18.8;;
68319;SDS011;55168;51.120;17.024;2023-06-22T04:01:00;20.9;;;18.8;;
68319;SDS011;55168;51.120;17.024;2023-06-22T04:02:00;20.9;;;18.8;;
68319;SDS011;55168;51.120;17.024;2023-06-22T04:03:00;20.9;;;18.8;;
68319;SDS011;55168;51.120;17.024;2023-06-22T04:04:00;20.0;;;18.1;;
68319;SDS011;55168;51.120;17.024;2023-06-22T04:05:00;20.0;;;18.1;;
68319;SDS011;55168;51.120;17.024;2023-06-22T04:06:00;20.0;;;18.1;;
68319;SDS011;55168;51.120;17.024;2023-06-22T04:07:00;20.0;;;18.1;;
68319;SDS011;55168;51.120;17.024;2023-06-22T04:08:00;20.0;;;18.1;;
68319;SDS011;55168;51.120;17.024;2023-06-22T04:09:00;20.6;;;18.6;;
68319;SDS011;55168;51.120;17.024;2023-06-22T04:10:00;20.6;;;18.6;;
68319;SDS011;55168;51.120;17.024;2023-06-22T04:11:00;20.6;;;18.6;;
68319;SDS011;55168;51.120;17.024;2023-06-22T04:12:01;20.6;;;18.6;;
68319;SDS011;55168;51.120;17.024;2023-06-22T04:13:00;20.6;;;18.6;;
68319;SDS011;55168;51.120;17.024;2023-06-22T04:14:00;20.8;;;18.9;;
68319;SDS011;55168;51.120;17.024;2023-06-22T04:15:00;20.8;;;18.9;;
68319;SDS011;55168;51.120;17.024;2023-06-22T04:16:00;20.8;;;18.9;;
68319;SDS011;55168;51.120;17.024;2023-06-22T04:17:01;20.8;;;18.9;;
68319;SDS011;55168;51.120;17.024;2023-06-22T04:18:00;20.8;;;18.9;;
68319;SDS011;55168;51.120;17.024;2023-06-22T04:19:00;20.1;;;18.2;;
68319;SDS011;55168;51.120;17.024;2023-06-22T04:20:00;20.1;;;18.2;;
68319;SDS011;55168;51.120;17.024;2023-06-22T04:21:01;20.1;;;18.2;;
68319;SDS011;55168;51.120;17.024;2023-06-22T04:22:00;20.1;;;18.2;;
68319;SDS011;55168;51.120;17.024;2023-06-22T04:23:00;20.1;;;18.2;;
68319;SDS011;55168;51.120;17.024;2023-06-22T04:24:00;20.6;;;18.3;;
68319;SDS011;55168;51.120;17.024;2023-06-22T04:25:00;20.6;;;18.3;;
68319;SDS011;55168;51.120;17.024;2023-06-22T04:26:00;20.6;;;18.3;;
68319;SDS011;55168;51.120;17.024;2023-06-22T04:27:00;20.6;;;18.3;;
68319;SDS011;55168;51.120;17.024;2023-06-22T04:28:00;20.6;;;18.3;;
68319;SDS011;55168;51.120;17.024;2023-06-22T04:29:00;20.2;;;18.1;;
68319;SDS011;55168;51.120;17.024;2023-06-22T04:30:00;20.2;;;18.1;;
68319;SDS011;55168;51.120;17.024;2023-06-22T04:31:01;20.2;;;18.1;;
68319;SDS011;55168;51.120;17.024;2023-06-22T04:32:00;20.2;;;18.1;;
68319;SDS011;55168;51.120;17.024;2023-06-22T04:33:00;20.2;;;18.1;;
68319;SDS011;55168;51.120;17.024;2023-06-22T04:34:00;21.1;;;19.1;;
68319;SDS011;55168;51.120;17.024;2023-06-22T04:35:00;21.1;;;19.1;;
68319;SDS011;55168;51.120;17.024;2023-06-22T04:36:00;21.1;;;19.1;;
68319;SDS011;55168;51.120;17.024;2023-06-22T04:37:00;21.1;;;19.1;;
68319;SDS011;55168;51.120;17.024;2023-06-22T04:38:00;21.1;;;19.1;;
68319;SDS011;55168;51.120;17.024;2023-06-22T04:39:00;21.7;;;19.6;;
68319;SDS011;55168;51.120;17.024;2023-06-22T04:40:00;21.7;;;19.6;;
68319;SDS011;55168;51.120;17.024;2023-06-22T04:41:00;21.7;;;19.6;;
68319;SDS011;55168;51.120;17.024;2023-06-22T04:42:00;21.7;;;19.6;;
68319;SDS011;55168;51.120;17.024;2023-06-22T04:43:00;21.7;;;19.6;;
68319;SDS011;55168;51.120;17.024;2023-06-22T04:44:00;20.3;;;18.3;;
68319;SDS011;55168;51.120;17.024;2023-06-22T04:45:00;20.3;;;18.3;;
68319;SDS011;55168;51.120;17.024;2023-06-22T04:46:00;20.3;;;18.3;;
68319;SDS011;55168;51.120;17.024;2023-06-22T04:47:01;20.3;;;18.3;;
68319;SDS011;55168;51.120;17.024;2023-06-22T04:48:00;20.3;;;18.3;;
68319;SDS011;55168;51.120;17.024;2023-06-22T04:49:00;21.9;;;19.7;;
68319;SDS011;55168;51.120;17.024;2023-06-22T04:50:00;21.9;;;19.7;;
68319;SDS011;55168;51.120;17.024;2023-06-22T04:51:01;21.9;;;19.7;;
68319;SDS011;55168;51.120;17.024;2023-06-22T04:52:01;21.9;;;19.7;;
68319;SDS011;55168;51.120;17.024;2023-06-22T04:53:00;21.9;;;19.7;;
68319;SDS011;55168;51.120;17.024;2023-06-22T04:54:00;22.2;;;20.0;;
68319;SDS011;55168;51.120;17.024;2023-06-22T04:55:00;22.2;;;20.0;;
68319;SDS011;55168;51.120;17.024;2023-06-22T04:56:00;22.2;;;20.0;;
68319;SDS011;55168;51.120;17.024;2023-06-22T04:57:02;22.2;;;20.0;;
68319;SDS011;55168;51.120;17.024;2023-06-22T04:58:00;22.2;;;20.0;;
68319;SDS011;55168;51.120;17.024;2023-06-22T04:59:00;21.2;;;19.2;;
68319;SDS011;55168;51.120;17.024;2023-06-22T05:00:00;21.2;;;19.2;;
68319;SDS011;55168;51.120;17.024;2023-06-22T05:01:00;21.2;;;19.2;;
68319;SDS011;55168;51.120;17.024;2023-06-22T05:02:01;21.2;;;19.2;;
68319;SDS011;55168;51.120;17.024;2023-06-22T05:03:00;21.2;;;19.2;;
68319;SDS011;55168;51.120;17.024;2023-06-22T05:04:00;23.4;;;21.2;;
68319;SDS011;55168;51.120;17.024;2023-06-22T05:05:00;23.4;;;21.2;;
68319;SDS011;55168;51.120;17.024;2023-06-22T05:06:00;23.4;;;21.2;;
68319;SDS011;55168;51.120;17.024;2023-06-22T05:07:01;23.4;;;21.2;;
68319;SDS011;55168;51.120;17.024;2023-06-22T05:08:00;23.4;;;21.2;;
68319;SDS011;55168;51.120;17.024;2023-06-22T05:09:00;22.2;;;20.0;;
68319;SDS011;55168;51.120;17.024;2023-06-22T05:10:02;22.2;;;20.0;;
68319;SDS011;55168;51.120;17.024;2023-06-22T05:11:00;22.2;;;20.0;;
68319;SDS011;55168;51.120;17.024;2023-06-22T05:12:00;22.2;;;20.0;;
68319;SDS011;55168;51.120;17.024;2023-06-22T05:13:00;22.2;;;20.0;;
68319;SDS011;55168;51.120;17.024;2023-06-22T05:14:00;22.8;;;20.7;;
68319;SDS011;55168;51.120;17.024;2023-06-22T05:15:00;22.8;;;20.7;;
68319;SDS011;55168;51.120;17.024;2023-06-22T05:16:00;22.8;;;20.7;;
68319;SDS011;55168;51.120;17.024;2023-06-22T05:17:00;22.8;;;20.7;;
68319;SDS011;55168;51.120;17.024;2023-06-22T05:18:00;22.8;;;20.7;;
68319;SDS011;55168;51.120;17.024;2023-06-22T05:19:00;23.0;;;20.7;;
68319;SDS011;55168;51.120;17.024;2023-06-22T05:20:01;23.0;;;20.7;;
68319;SDS011;55168;51.120;17.024;2023-06-22T05:21:00;23.0;;;20.7;;
68319;SDS011;55168;51.120;17.024;2023-06-22T05:22:00;23.0;;;20.7;;
68319;SDS011;55168;51.120;17.024;2023-06-22T05:23:00;23.0;;;20.7;;
68319;SDS011;55168;51.120;17.024;2023-06-22T05:24:00;22.9;;;20.7;;
68319;SDS011;55168;51.120;17.024;2023-06-22T05:25:00;22.9;;;20.7;;
68319;SDS011;55168;51.120;17.024;2023-06-22T05:26:00;22.9;;;20.7;;
68319;SDS011;55168;51.120;17.024;2023-06-22T05:27:00;22.9;;;20.7;;
68319;SDS011;55168;51.120;17.024;2023-06-22T05:28:00;22.9;;;20.7;;
68319;SDS011;55168;51.120;17.024;2023-06-22T05:29:02;21.6;;;19.5;;
68319;SDS011;55168;51.120;17.024;2023-06-22T05:30:00;21.6;;;19.5;;
68319;SDS011;55168;51.120;17.024;2023-06-22T05:31:00;21.6;;;19.5;;
68319;SDS011;55168;51.120;17.024;2023-06-22T05:32:00;21.6;;;19.5;;
68319;SDS011;55168;51.120;17.024;2023-06-22T05:33:00;21.6;;;19.5;;
68319;SDS011;55168;51.120;17.024;2023-06-22T05:34:00;21.0;;;19.1;;
68319;SDS011;55168;51.120;17.024;2023-06-22T05:35:00;21.0;;;19.1;;
68319;SDS011;55168;51.120;17.024;2023-06-22T05:36:00;21.0;;;19.1;;
68319;SDS011;55168;51.120;17.024;2023-06-22T05:37:00;21.0;;;19.1;;
68319;SDS011;55168;51.120;17.024;2023-06-22T05:38:00;21.0;;;19.1;;
68319;SDS011;55168;51.120;17.024;2023-06-22T05:39:10;21.0;;;18.9;;
68319;SDS011;55168;51.120;17.024;2023-06-22T05:40:00;21.0;;;18.9;;
68319;SDS011;55168;51.120;17.024;2023-06-22T05:41:00;21.0;;;18.9;;
68319;SDS011;55168;51.120;17.024;2023-06-22T05:42:00;21.0;;;18.9;;
68319;SDS011;55168;51.120;17.024;2023-06-22T05:43:00;21.0;;;18.9;;
68319;SDS011;55168;51.120;17.024;2023-06-22T05:44:00;18.5;;;16.8;;
68319;SDS011;55168;51.120;17.024;2023-06-22T05:45:00;18.5;;;16.8;;
68319;SDS011;55168;51.120;17.024;2023-06-22T05:46:01;18.5;;;16.8;;
68319;SDS011;55168;51.120;17.024;2023-06-22T05:47:00;18.5;;;16.8;;
68319;SDS011;55168;51.120;17.024;2023-06-22T05:48:00;18.5;;;16.8;;
68319;SDS011;55168;51.120;17.024;2023-06-22T05:49:00;17.3;;;15.8;;
68319;SDS011;55168;51.120;17.024;2023-06-22T05:50:00;17.3;;;15.8;;
68319;SDS011;55168;51.120;17.024;2023-06-22T05:51:00;17.3;;;15.8;;
68319;SDS011;55168;51.120;17.024;2023-06-22T05:52:00;17.3;;;15.8;;
68319;SDS011;55168;51.120;17.024;2023-06-22T05:53:00;17.3;;;15.8;;
68319;SDS011;55168;51.120;17.024;2023-06-22T05:54:00;16.3;;;14.8;;
68319;SDS011;55168;51.120;17.024;2023-06-22T05:55:02;16.3;;;14.8;;
68319;SDS011;55168;51.120;17.024;2023-06-22T05:56:00;16.3;;;14.8;;
68319;SDS011;55168;51.120;17.024;2023-06-22T05:57:00;16.3;;;14.8;;
68319;SDS011;55168;51.120;17.024;2023-06-22T05:58:00;16.3;;;14.8;;